sensor_id;sensor_type;location;lat;lon;timestamp;pressure;altitude;pressure_sealevel;temperature;humidity
37066;BME280;22981;43.080;25.550;2023-03-01T00:01:28;100464.36;;;6.62;82.34
37066;BME280;22981;43.080;25.550;2023-03-01T00:03:57;100460.05;;;6.61;82.38
37066;BME280;22981;43.080;25.550;2023-03-01T00:06:25;100458.20;;;6.62;82.42
37066;BME280;22981;43.080;25.550;2023-03-01T00:08:53;100455.88;;;6.63;82.39
37066;BME280;22981;43.080;25.550;2023-03-01T00:11:23;100454.03;;;6.63;82.41
37066;BME280;22981;43.080;25.550;2023-03-01T00:13:53;100447.23;;;6.65;82.40
37066;BME280;22981;43.080;25.550;2023-03-01T00:16:23;100443.06;;;6.66;82.40
37066;BME280;22981;43.080;25.550;2023-03-01T00:18:51;100445.55;;;6.68;82.31
37066;BME280;22981;43.080;25.550;2023-03-01T00:21:20;100445.89;;;6.69;82.26
37066;BME280;22981;43.080;25.550;2023-03-01T00:23:49;100448.06;;;6.65;82.29
37066;BME280;22981;43.080;25.550;2023-03-01T00:26:18;100446.42;;;6.60;82.31
37066;BME280;22981;43.080;25.550;2023-03-01T00:28:46;100451.24;;;6.57;82.52
37066;BME280;22981;43.080;25.550;2023-03-01T00:31:16;100455.88;;;6.55;82.59
37066;BME280;22981;43.080;25.550;2023-03-01T00:33:44;100457.22;;;6.50;82.60
37066;BME280;22981;43.080;25.550;2023-03-01T00:36:13;100452.58;;;6.48;82.60
37066;BME280;22981;43.080;25.550;2023-03-01T00:38:44;100444.42;;;6.50;82.67
37066;BME280;22981;43.080;25.550;2023-03-01T00:41:14;100433.13;;;6.56;82.63
37066;BME280;22981;43.080;25.550;2023-03-01T00:43:42;100420.31;;;6.60;82.48
37066;BME280;22981;43.080;25.550;2023-03-01T00:46:15;100418.98;;;6.60;82.34
37066;BME280;22981;43.080;25.550;2023-03-01T00:48:43;100417.80;;;6.58;82.33
37066;BME280;22981;43.080;25.550;2023-03-01T00:51:17;100412.34;;;6.56;82.24
37066;BME280;22981;43.080;25.550;2023-03-01T00:53:46;100412.35;;;6.51;82.21
37066;BME280;22981;43.080;25.550;2023-03-01T00:56:14;100406.35;;;6.49;82.25
37066;BME280;22981;43.080;25.550;2023-03-01T00:58:42;100402.05;;;6.48;82.21
37066;BME280;22981;43.080;25.550;2023-03-01T01:01:22;100396.05;;;6.46;82.14
37066;BME280;22981;43.080;25.550;2023-03-01T01:03:48;100392.23;;;6.45;82.19
37066;BME280;22981;43.080;25.550;2023-03-01T01:06:21;100383.42;;;6.44;82.14
37066;BME280;22981;43.080;25.550;2023-03-01T01:08:50;100379.77;;;6.45;82.11
37066;BME280;22981;43.080;25.550;2023-03-01T01:11:18;100380.77;;;6.44;82.14
37066;BME280;22981;43.080;25.550;2023-03-01T01:13:47;100378.11;;;6.44;82.17
37066;BME280;22981;43.080;25.550;2023-03-01T01:16:17;100375.27;;;6.46;82.19
37066;BME280;22981;43.080;25.550;2023-03-01T01:18:45;100377.78;;;6.47;82.13
37066;BME280;22981;43.080;25.550;2023-03-01T01:21:15;100366.46;;;6.45;82.18
37066;BME280;22981;43.080;25.550;2023-03-01T01:23:44;100371.28;;;6.46;82.19
37066;BME280;22981;43.080;25.550;2023-03-01T01:26:15;100376.10;;;6.42;82.20
37066;BME280;22981;43.080;25.550;2023-03-01T01:28:42;100365.32;;;6.40;82.28
37066;BME280;22981;43.080;25.550;2023-03-01T01:31:10;100380.45;;;6.39;82.42
37066;BME280;22981;43.080;25.550;2023-03-01T01:33:38;100378.45;;;6.37;82.38
37066;BME280;22981;43.080;25.550;2023-03-01T01:36:06;100379.63;;;6.39;82.44
37066;BME280;22981;43.080;25.550;2023-03-01T01:38:36;100382.80;;;6.38;82.36
37066;BME280;22981;43.080;25.550;2023-03-01T01:41:04;100385.28;;;6.36;82.46
37066;BME280;22981;43.080;25.550;2023-03-01T01:43:38;100387.62;;;6.35;82.53
37066;BME280;22981;43.080;25.550;2023-03-01T01:46:26;100387.95;;;6.27;82.58
37066;BME280;22981;43.080;25.550;2023-03-01T01:49:03;100385.48;;;6.22;82.74
37066;BME280;22981;43.080;25.550;2023-03-01T01:51:38;100394.43;;;6.21;82.75
37066;BME280;22981;43.080;25.550;2023-03-01T01:54:09;100393.09;;;6.21;82.72
37066;BME280;22981;43.080;25.550;2023-03-01T01:56:34;100393.09;;;6.21;82.72
37066;BME280;22981;43.080;25.550;2023-03-01T01:59:03;100387.78;;;6.21;82.75
37066;BME280;22981;43.080;25.550;2023-03-01T02:01:31;100388.45;;;6.23;82.80
37066;BME280;22981;43.080;25.550;2023-03-01T02:03:59;100387.45;;;6.24;82.87
37066;BME280;22981;43.080;25.550;2023-03-01T02:06:35;100377.64;;;6.28;82.87
37066;BME280;22981;43.080;25.550;2023-03-01T02:09:08;100378.45;;;6.33;82.86
37066;BME280;22981;43.080;25.550;2023-03-01T02:11:36;100381.80;;;6.35;82.72
37066;BME280;22981;43.080;25.550;2023-03-01T02:14:04;100380.47;;;6.35;82.68
37066;BME280;22981;43.080;25.550;2023-03-01T02:16:32;100382.94;;;6.37;82.65
37066;BME280;22981;43.080;25.550;2023-03-01T02:19:00;100384.60;;;6.34;82.59
37066;BME280;22981;43.080;25.550;2023-03-01T02:21:42;100382.30;;;6.31;82.66
37066;BME280;22981;43.080;25.550;2023-03-01T02:24:18;100380.15;;;6.30;82.67
37066;BME280;22981;43.080;25.550;2023-03-01T02:26:46;100382.31;;;6.26;82.68
37066;BME280;22981;43.080;25.550;2023-03-01T02:29:14;100377.64;;;6.24;82.75
37066;BME280;22981;43.080;25.550;2023-03-01T02:31:42;100379.48;;;6.24;82.82
37066;BME280;22981;43.080;25.550;2023-03-01T02:34:12;100383.47;;;6.20;82.84
37066;BME280;22981;43.080;25.550;2023-03-01T02:37:43;100379.84;;;6.13;82.92
37066;BME280;22981;43.080;25.550;2023-03-01T02:39:32;100376.51;;;6.11;83.19
37066;BME280;22981;43.080;25.550;2023-03-01T02:41:59;100369.86;;;6.15;83.28
37066;BME280;22981;43.080;25.550;2023-03-01T02:44:28;100362.05;;;6.17;83.23
37066;BME280;22981;43.080;25.550;2023-03-01T02:46:57;100363.53;;;6.20;83.32
37066;BME280;22981;43.080;25.550;2023-03-01T02:49:28;100366.04;;;6.21;83.26
37066;BME280;22981;43.080;25.550;2023-03-01T02:52:23;100360.86;;;6.24;83.27
37066;BME280;22981;43.080;25.550;2023-03-01T02:57:24;100369.34;;;6.23;83.05
37066;BME280;22981;43.080;25.550;2023-03-01T02:59:55;100364.04;;;6.15;83.03
37066;BME280;22981;43.080;25.550;2023-03-01T03:02:29;100359.09;;;6.08;83.21
37066;BME280;22981;43.080;25.550;2023-03-01T03:05:15;100364.41;;;6.04;83.39
37066;BME280;22981;43.080;25.550;2023-03-01T03:07:42;100365.23;;;6.00;83.54
37066;BME280;22981;43.080;25.550;2023-03-01T03:10:12;100363.41;;;6.01;83.67
37066;BME280;22981;43.080;25.550;2023-03-01T03:12:40;100363.23;;;6.02;83.76
37066;BME280;22981;43.080;25.550;2023-03-01T03:15:09;100361.39;;;6.07;83.79
37066;BME280;22981;43.080;25.550;2023-03-01T03:17:40;100364.22;;;6.10;83.68
37066;BME280;22981;43.080;25.550;2023-03-01T03:20:10;100364.88;;;6.08;83.65
37066;BME280;22981;43.080;25.550;2023-03-01T03:22:39;100364.88;;;6.03;83.69
37066;BME280;22981;43.080;25.550;2023-03-01T03:25:08;100365.56;;;5.97;83.80
37066;BME280;22981;43.080;25.550;2023-03-01T03:27:41;100366.21;;;5.91;83.95
37066;BME280;22981;43.080;25.550;2023-03-01T03:30:13;100370.20;;;5.87;84.13
37066;BME280;22981;43.080;25.550;2023-03-01T03:32:42;100367.69;;;5.90;84.34
37066;BME280;22981;43.080;25.550;2023-03-01T03:35:11;100368.91;;;5.95;84.41
37066;BME280;22981;43.080;25.550;2023-03-01T03:37:40;100372.20;;;5.97;84.43
37066;BME280;22981;43.080;25.550;2023-03-01T03:40:27;100372.53;;;5.98;84.48
37066;BME280;22981;43.080;25.550;2023-03-01T03:45:59;100368.72;;;6.01;84.37
37066;BME280;22981;43.080;25.550;2023-03-01T03:48:27;100372.85;;;6.03;84.27
37066;BME280;22981;43.080;25.550;2023-03-01T03:50:55;100370.70;;;6.03;84.31
37066;BME280;22981;43.080;25.550;2023-03-01T03:53:25;100375.36;;;6.01;84.49
37066;BME280;22981;43.080;25.550;2023-03-01T03:58:39;100366.20;;;6.08;84.63
37066;BME280;22981;43.080;25.550;2023-03-01T04:01:07;100358.91;;;6.10;84.54
37066;BME280;22981;43.080;25.550;2023-03-01T04:03:52;100362.89;;;6.14;84.50
37066;BME280;22981;43.080;25.550;2023-03-01T04:06:21;100359.55;;;6.16;84.31
37066;BME280;22981;43.080;25.550;2023-03-01T04:08:48;100358.40;;;6.14;84.36
37066;BME280;22981;43.080;25.550;2023-03-01T04:11:17;100353.73;;;6.12;84.36
37066;BME280;22981;43.080;25.550;2023-03-01T04:13:56;100352.91;;;6.12;84.45
37066;BME280;22981;43.080;25.550;2023-03-01T04:16:25;100358.73;;;6.11;84.48
37066;BME280;22981;43.080;25.550;2023-03-01T04:18:53;100354.42;;;6.06;84.55
37066;BME280;22981;43.080;25.550;2023-03-01T04:21:20;100357.26;;;6.05;84.79
37066;BME280;22981;43.080;25.550;2023-03-01T04:23:48;100363.22;;;6.07;84.91
37066;BME280;22981;43.080;25.550;2023-03-01T04:26:18;100359.56;;;6.08;84.89
37066;BME280;22981;43.080;25.550;2023-03-01T04:28:46;100365.87;;;6.07;84.84
37066;BME280;22981;43.080;25.550;2023-03-01T04:31:18;100364.88;;;6.03;84.82
37066;BME280;22981;43.080;25.550;2023-03-01T04:33:55;100364.88;;;5.99;84.91
37066;BME280;22981;43.080;25.550;2023-03-01T04:36:28;100368.05;;;5.95;84.95
37066;BME280;22981;43.080;25.550;2023-03-01T04:38:56;100364.20;;;5.89;85.03
37066;BME280;22981;43.080;25.550;2023-03-01T04:41:25;100364.53;;;5.86;85.18
37066;BME280;22981;43.080;25.550;2023-03-01T04:43:53;100364.53;;;5.86;85.37
37066;BME280;22981;43.080;25.550;2023-03-01T04:46:21;100365.86;;;5.86;85.42
37066;BME280;22981;43.080;25.550;2023-03-01T04:48:48;100367.19;;;5.90;85.45
37066;BME280;22981;43.080;25.550;2023-03-01T04:51:16;100370.34;;;5.90;85.44
37066;BME280;22981;43.080;25.550;2023-03-01T04:53:44;100368.72;;;5.93;85.49
37066;BME280;22981;43.080;25.550;2023-03-01T04:56:13;100369.73;;;5.96;85.42
37066;BME280;22981;43.080;25.550;2023-03-01T04:58:41;100368.40;;;6.00;85.33
37066;BME280;22981;43.080;25.550;2023-03-01T05:01:15;100364.55;;;5.98;85.23
37066;BME280;22981;43.080;25.550;2023-03-01T05:03:44;100369.37;;;5.99;85.24
37066;BME280;22981;43.080;25.550;2023-03-01T05:06:13;100365.23;;;5.96;85.20
37066;BME280;22981;43.080;25.550;2023-03-01T05:08:42;100364.91;;;5.95;85.32
37066;BME280;22981;43.080;25.550;2023-03-01T05:11:11;100361.39;;;5.99;85.45
37066;BME280;22981;43.080;25.550;2023-03-01T05:13:39;100368.22;;;6.06;85.37
37066;BME280;22981;43.080;25.550;2023-03-01T05:16:08;100358.41;;;6.10;85.32
37066;BME280;22981;43.080;25.550;2023-03-01T05:18:37;100359.22;;;6.15;85.13
37066;BME280;22981;43.080;25.550;2023-03-01T05:21:07;100359.91;;;6.17;85.03
37066;BME280;22981;43.080;25.550;2023-03-01T05:23:36;100362.88;;;6.18;84.96
37066;BME280;22981;43.080;25.550;2023-03-01T05:26:05;100359.22;;;6.19;84.92
37066;BME280;22981;43.080;25.550;2023-03-01T05:28:33;100364.03;;;6.19;84.86
37066;BME280;22981;43.080;25.550;2023-03-01T05:31:01;100370.50;;;6.21;84.80
37066;BME280;22981;43.080;25.550;2023-03-01T05:33:28;100352.39;;;6.20;84.74
37066;BME280;22981;43.080;25.550;2023-03-01T05:35:59;100365.18;;;6.21;84.75
37066;BME280;22981;43.080;25.550;2023-03-01T05:38:27;100363.20;;;6.23;84.73
37066;BME280;22981;43.080;25.550;2023-03-01T05:40:54;100360.86;;;6.24;84.67
37066;BME280;22981;43.080;25.550;2023-03-01T05:43:22;100354.89;;;6.26;84.56
37066;BME280;22981;43.080;25.550;2023-03-01T05:45:49;100358.38;;;6.22;84.59
37066;BME280;22981;43.080;25.550;2023-03-01T05:48:17;100358.38;;;6.22;84.65
37066;BME280;22981;43.080;25.550;2023-03-01T05:50:45;100360.03;;;6.23;84.67
37066;BME280;22981;43.080;25.550;2023-03-01T05:53:16;100362.87;;;6.22;84.67
37066;BME280;22981;43.080;25.550;2023-03-01T05:55:45;100369.17;;;6.21;84.67
37066;BME280;22981;43.080;25.550;2023-03-01T05:58:18;100369.17;;;6.21;84.72
37066;BME280;22981;43.080;25.550;2023-03-01T06:00:48;100374.84;;;6.22;84.63
37066;BME280;22981;43.080;25.550;2023-03-01T06:03:17;100375.49;;;6.20;84.59
37066;BME280;22981;43.080;25.550;2023-03-01T06:05:45;100372.83;;;6.24;84.63
37066;BME280;22981;43.080;25.550;2023-03-01T06:08:13;100371.34;;;6.25;84.55
37066;BME280;22981;43.080;25.550;2023-03-01T06:10:41;100368.19;;;6.26;84.46
37066;BME280;22981;43.080;25.550;2023-03-01T06:13:08;100375.34;;;6.25;84.43
37066;BME280;22981;43.080;25.550;2023-03-01T06:15:36;100377.50;;;6.26;84.44
37066;BME280;22981;43.080;25.550;2023-03-01T06:18:03;100376.81;;;6.28;84.41
37066;BME280;22981;43.080;25.550;2023-03-01T06:20:31;100381.98;;;6.30;84.37
37066;BME280;22981;43.080;25.550;2023-03-01T06:22:59;100375.16;;;6.31;84.35
37066;BME280;22981;43.080;25.550;2023-03-01T06:25:28;100370.33;;;6.35;84.38
37066;BME280;22981;43.080;25.550;2023-03-01T06:27:55;100372.16;;;6.34;84.29
37066;BME280;22981;43.080;25.550;2023-03-01T06:30:25;100378.45;;;6.33;84.31
37066;BME280;22981;43.080;25.550;2023-03-01T06:32:52;100370.98;;;6.33;84.31
37066;BME280;22981;43.080;25.550;2023-03-01T06:35:22;100372.17;;;6.30;84.35
37066;BME280;22981;43.080;25.550;2023-03-01T06:37:49;100378.64;;;6.32;84.27
37066;BME280;22981;43.080;25.550;2023-03-01T06:40:17;100380.47;;;6.31;84.27
37066;BME280;22981;43.080;25.550;2023-03-01T06:42:47;100384.95;;;6.35;84.33
37066;BME280;22981;43.080;25.550;2023-03-01T06:45:15;100387.61;;;6.39;84.26
37066;BME280;22981;43.080;25.550;2023-03-01T06:47:43;100384.27;;;6.41;84.06
37066;BME280;22981;43.080;25.550;2023-03-01T06:50:11;100380.59;;;6.42;84.04
37066;BME280;22981;43.080;25.550;2023-03-01T06:52:39;100379.95;;;6.40;83.97
37066;BME280;22981;43.080;25.550;2023-03-01T06:55:07;100389.27;;;6.40;83.99
37066;BME280;22981;43.080;25.550;2023-03-01T06:57:35;100389.91;;;6.42;84.02
37066;BME280;22981;43.080;25.550;2023-03-01T07:00:04;100388.25;;;6.45;83.94
37066;BME280;22981;43.080;25.550;2023-03-01T07:02:32;100392.56;;;6.46;83.91
37066;BME280;22981;43.080;25.550;2023-03-01T07:04:59;100391.91;;;6.44;83.85
37066;BME280;22981;43.080;25.550;2023-03-01T07:07:27;100394.57;;;6.44;83.82
37066;BME280;22981;43.080;25.550;2023-03-01T07:09:54;100394.25;;;6.43;83.89
37066;BME280;22981;43.080;25.550;2023-03-01T07:12:23;100394.58;;;6.40;83.88
37066;BME280;22981;43.080;25.550;2023-03-01T07:14:53;100399.22;;;6.38;83.95
37066;BME280;22981;43.080;25.550;2023-03-01T07:17:20;100393.08;;;6.33;83.93
37066;BME280;22981;43.080;25.550;2023-03-01T07:19:48;100393.45;;;6.30;84.05
37066;BME280;22981;43.080;25.550;2023-03-01T07:22:15;100387.62;;;6.26;84.17
37066;BME280;22981;43.080;25.550;2023-03-01T07:24:43;100392.44;;;6.31;84.22
37066;BME280;22981;43.080;25.550;2023-03-01T07:27:11;100396.09;;;6.34;84.14
37066;BME280;22981;43.080;25.550;2023-03-01T07:29:38;100391.75;;;6.33;84.11
37066;BME280;22981;43.080;25.550;2023-03-01T07:32:07;100404.89;;;6.39;84.05
37066;BME280;22981;43.080;25.550;2023-03-01T07:34:34;100396.41;;;6.43;84.01
37066;BME280;22981;43.080;25.550;2023-03-01T07:37:02;100394.23;;;6.47;83.92
37066;BME280;22981;43.080;25.550;2023-03-01T07:39:29;100394.38;;;6.49;83.79
37066;BME280;22981;43.080;25.550;2023-03-01T07:41:57;100398.87;;;6.53;83.69
37066;BME280;22981;43.080;25.550;2023-03-01T07:44:24;100389.73;;;6.56;83.54
37066;BME280;22981;43.080;25.550;2023-03-01T07:46:52;100393.03;;;6.58;83.39
37066;BME280;22981;43.080;25.550;2023-03-01T07:49:21;100391.06;;;6.56;83.30
37066;BME280;22981;43.080;25.550;2023-03-01T07:51:49;100391.06;;;6.56;83.24
37066;BME280;22981;43.080;25.550;2023-03-01T07:54:17;100390.69;;;6.59;83.26
37066;BME280;22981;43.080;25.550;2023-03-01T07:56:45;100391.03;;;6.64;83.21
37066;BME280;22981;43.080;25.550;2023-03-01T07:59:12;100385.03;;;6.66;83.07
37066;BME280;22981;43.080;25.550;2023-03-01T08:01:40;100392.17;;;6.69;83.07
37066;BME280;22981;43.080;25.550;2023-03-01T08:04:08;100393.00;;;6.70;83.00
37066;BME280;22981;43.080;25.550;2023-03-01T08:06:36;100394.83;;;6.69;83.01
37066;BME280;22981;43.080;25.550;2023-03-01T08:09:04;100397.16;;;6.72;82.94
37066;BME280;22981;43.080;25.550;2023-03-01T08:11:31;100395.17;;;6.66;82.83
37066;BME280;22981;43.080;25.550;2023-03-01T08:13:59;100398.34;;;6.62;82.89
37066;BME280;22981;43.080;25.550;2023-03-01T08:16:27;100397.02;;;6.62;82.97
37066;BME280;22981;43.080;25.550;2023-03-01T08:18:54;100398.66;;;6.63;83.03
37066;BME280;22981;43.080;25.550;2023-03-01T08:21:24;100398.15;;;6.67;83.02
37066;BME280;22981;43.080;25.550;2023-03-01T08:23:52;100400.16;;;6.69;82.91
37066;BME280;22981;43.080;25.550;2023-03-01T08:26:20;100398.15;;;6.67;82.83
37066;BME280;22981;43.080;25.550;2023-03-01T08:28:49;100395.99;;;6.67;82.85
37066;BME280;22981;43.080;25.550;2023-03-01T08:31:25;100399.47;;;6.71;82.83
37066;BME280;22981;43.080;25.550;2023-03-01T08:33:55;100390.98;;;6.72;82.76
37066;BME280;22981;43.080;25.550;2023-03-01T08:36:25;100390.83;;;6.73;82.74
37066;BME280;22981;43.080;25.550;2023-03-01T08:38:54;100393.30;;;6.75;82.69
37066;BME280;22981;43.080;25.550;2023-03-01T08:41:22;100394.30;;;6.78;82.64
37066;BME280;22981;43.080;25.550;2023-03-01T08:43:50;100389.63;;;6.80;82.59
37066;BME280;22981;43.080;25.550;2023-03-01T08:46:19;100396.45;;;6.83;82.47
37066;BME280;22981;43.080;25.550;2023-03-01T08:48:46;100393.97;;;6.81;82.39
37066;BME280;22981;43.080;25.550;2023-03-01T08:51:16;100391.45;;;6.80;82.37
37066;BME280;22981;43.080;25.550;2023-03-01T08:53:44;100397.95;;;6.81;82.39
37066;BME280;22981;43.080;25.550;2023-03-01T08:56:13;100389.98;;;6.81;82.29
37066;BME280;22981;43.080;25.550;2023-03-01T08:58:46;100389.63;;;6.80;82.31
37066;BME280;22981;43.080;25.550;2023-03-01T09:01:16;100384.30;;;6.80;82.25
37066;BME280;22981;43.080;25.550;2023-03-01T09:03:45;100389.12;;;6.81;82.20
37066;BME280;22981;43.080;25.550;2023-03-01T09:06:13;100392.79;;;6.80;82.10
37066;BME280;22981;43.080;25.550;2023-03-01T09:08:43;100388.66;;;6.77;82.17
37066;BME280;22981;43.080;25.550;2023-03-01T09:11:13;100390.81;;;6.77;82.22
37066;BME280;22981;43.080;25.550;2023-03-01T09:13:42;100397.11;;;6.76;82.27
37066;BME280;22981;43.080;25.550;2023-03-01T09:16:12;100401.46;;;6.77;82.32
37066;BME280;22981;43.080;25.550;2023-03-01T09:18:40;100401.27;;;6.79;82.32
37066;BME280;22981;43.080;25.550;2023-03-01T09:21:10;100401.46;;;6.77;82.20
37066;BME280;22981;43.080;25.550;2023-03-01T09:23:40;100395.31;;;6.77;82.13
37066;BME280;22981;43.080;25.550;2023-03-01T09:26:10;100405.95;;;6.77;82.11
37066;BME280;22981;43.080;25.550;2023-03-01T09:28:38;100398.80;;;6.77;82.00
37066;BME280;22981;43.080;25.550;2023-03-01T09:31:07;100397.97;;;6.77;82.01
37066;BME280;22981;43.080;25.550;2023-03-01T09:33:35;100395.46;;;6.75;81.90
37066;BME280;22981;43.080;25.550;2023-03-01T09:36:05;100394.13;;;6.75;81.92
37066;BME280;22981;43.080;25.550;2023-03-01T09:38:33;100387.80;;;6.76;81.91
37066;BME280;22981;43.080;25.550;2023-03-01T09:41:01;100382.52;;;6.72;81.81
37066;BME280;22981;43.080;25.550;2023-03-01T09:43:50;100382.66;;;6.75;81.88
37066;BME280;22981;43.080;25.550;2023-03-01T09:46:22;100379.65;;;6.82;81.90
37066;BME280;22981;43.080;25.550;2023-03-01T09:48:59;100378.96;;;6.84;81.70
37066;BME280;22981;43.080;25.550;2023-03-01T09:51:29;100374.45;;;6.89;81.62
37066;BME280;22981;43.080;25.550;2023-03-01T09:54:16;100310.07;;;6.54;81.39
37066;BME280;22981;43.080;25.550;2023-03-01T10:02:21;100374.73;;;6.98;81.22
37066;BME280;22981;43.080;25.550;2023-03-01T10:04:45;100384.23;;;6.96;81.21
37066;BME280;22981;43.080;25.550;2023-03-01T10:09:50;100365.94;;;6.93;81.12
37066;BME280;22981;43.080;25.550;2023-03-01T10:12:24;100367.76;;;6.97;81.09
37066;BME280;22981;43.080;25.550;2023-03-01T10:14:55;100364.08;;;6.98;80.93
37066;BME280;22981;43.080;25.550;2023-03-01T10:20:15;100361.92;;;6.97;80.96
37066;BME280;22981;43.080;25.550;2023-03-01T10:22:43;100357.41;;;7.02;80.84
37066;BME280;22981;43.080;25.550;2023-03-01T10:25:14;100344.77;;;7.04;80.72
37066;BME280;22981;43.080;25.550;2023-03-01T10:27:51;100342.93;;;7.05;80.63
37066;BME280;22981;43.080;25.550;2023-03-01T10:30:34;100356.73;;;7.08;80.60
37066;BME280;22981;43.080;25.550;2023-03-01T10:33:01;100354.20;;;7.11;80.35
37066;BME280;22981;43.080;25.550;2023-03-01T10:35:31;100356.05;;;7.06;80.23
37066;BME280;22981;43.080;25.550;2023-03-01T10:38:12;100350.75;;;7.02;80.25
37066;BME280;22981;43.080;25.550;2023-03-01T10:40:58;100350.59;;;7.03;80.30
37066;BME280;22981;43.080;25.550;2023-03-01T10:43:45;100347.62;;;7.02;80.32
37066;BME280;22981;43.080;25.550;2023-03-01T10:46:30;100343.94;;;7.03;80.27
37066;BME280;22981;43.080;25.550;2023-03-01T10:51:49;100333.42;;;7.06;80.38
37066;BME280;22981;43.080;25.550;2023-03-01T10:54:20;100334.73;;;7.10;80.35
37066;BME280;22981;43.080;25.550;2023-03-01T10:56:52;100327.41;;;7.12;80.26
37066;BME280;22981;43.080;25.550;2023-03-01T10:59:26;100322.25;;;7.11;80.21
37066;BME280;22981;43.080;25.550;2023-03-01T11:02:37;100321.42;;;7.10;80.31
37066;BME280;22981;43.080;25.550;2023-03-01T11:04:21;100319.11;;;7.11;80.28
37066;BME280;22981;43.080;25.550;2023-03-01T11:06:57;100317.93;;;7.10;80.22
37066;BME280;22981;43.080;25.550;2023-03-01T11:09:24;100312.61;;;7.10;80.26
37066;BME280;22981;43.080;25.550;2023-03-01T11:11:55;100307.79;;;7.09;80.27
37066;BME280;22981;43.080;25.550;2023-03-01T11:14:25;100313.30;;;7.08;80.24
37066;BME280;22981;43.080;25.550;2023-03-01T11:20:15;100294.28;;;7.11;80.35
37066;BME280;22981;43.080;25.550;2023-03-01T11:22:36;100295.46;;;7.12;80.27
37066;BME280;22981;43.080;25.550;2023-03-01T11:25:03;100294.95;;;7.13;80.20
37066;BME280;22981;43.080;25.550;2023-03-01T11:27:32;100295.27;;;7.14;80.21
37066;BME280;22981;43.080;25.550;2023-03-01T11:30:05;100295.12;;;7.15;80.25
37066;BME280;22981;43.080;25.550;2023-03-01T11:32:39;100286.14;;;7.12;80.29
37066;BME280;22981;43.080;25.550;2023-03-01T11:35:10;100292.95;;;7.11;80.34
37066;BME280;22981;43.080;25.550;2023-03-01T11:40:32;100285.13;;;7.13;80.25
37066;BME280;22981;43.080;25.550;2023-03-01T11:45:39;100281.32;;;7.12;80.20
37066;BME280;22981;43.080;25.550;2023-03-01T11:51:02;100274.50;;;7.09;80.19
37066;BME280;22981;43.080;25.550;2023-03-01T11:53:57;100270.51;;;7.09;80.17
37066;BME280;22981;43.080;25.550;2023-03-01T11:56:38;100266.01;;;7.10;80.07
37066;BME280;22981;43.080;25.550;2023-03-01T12:01:58;100267.19;;;7.11;79.82
37066;BME280;22981;43.080;25.550;2023-03-01T12:10:01;100250.06;;;7.06;79.74
37066;BME280;22981;43.080;25.550;2023-03-01T12:12:33;100246.07;;;7.06;79.76
37066;BME280;22981;43.080;25.550;2023-03-01T12:17:48;100242.90;;;7.06;79.83
37066;BME280;22981;43.080;25.550;2023-03-01T12:23:42;100240.39;;;7.09;79.83
37066;BME280;22981;43.080;25.550;2023-03-01T12:29:16;100253.08;;;7.07;79.90
37066;BME280;22981;43.080;25.550;2023-03-01T12:32:09;100246.42;;;7.07;79.97
37066;BME280;22981;43.080;25.550;2023-03-01T12:39:54;100237.73;;;7.09;79.99
37066;BME280;22981;43.080;25.550;2023-03-01T12:51:20;100234.88;;;7.10;79.87
37066;BME280;22981;43.080;25.550;2023-03-01T12:53:49;100239.20;;;7.15;79.78
37066;BME280;22981;43.080;25.550;2023-03-01T12:56:23;100237.86;;;7.15;79.66
37066;BME280;22981;43.080;25.550;2023-03-01T12:59:08;100237.70;;;7.13;79.55
37066;BME280;22981;43.080;25.550;2023-03-01T13:01:42;100238.75;;;7.08;79.59
37066;BME280;22981;43.080;25.550;2023-03-01T13:15:26;100242.11;;;7.24;79.62
37066;BME280;22981;43.080;25.550;2023-03-01T13:18:02;100232.80;;;7.24;79.44
37066;BME280;22981;43.080;25.550;2023-03-01T13:23:07;100224.67;;;7.18;79.62
37066;BME280;22981;43.080;25.550;2023-03-01T13:25:32;100228.55;;;7.15;79.67
37066;BME280;22981;43.080;25.550;2023-03-01T13:33:49;100225.44;;;7.08;79.99
37066;BME280;22981;43.080;25.550;2023-03-01T13:41:53;100227.14;;;7.00;80.14
37066;BME280;22981;43.080;25.550;2023-03-01T13:46:59;100227.33;;;6.99;80.19
37066;BME280;22981;43.080;25.550;2023-03-01T13:49:27;100230.31;;;7.00;80.28
37066;BME280;22981;43.080;25.550;2023-03-01T13:51:57;100224.16;;;6.99;80.36
37066;BME280;22981;43.080;25.550;2023-03-01T13:54:32;100232.15;;;6.99;80.45
37066;BME280;22981;43.080;25.550;2023-03-01T13:57:01;100227.65;;;7.00;80.52
37066;BME280;22981;43.080;25.550;2023-03-01T13:59:29;100217.50;;;6.99;80.47
37066;BME280;22981;43.080;25.550;2023-03-01T14:01:59;100214.53;;;6.98;80.52
37066;BME280;22981;43.080;25.550;2023-03-01T14:04:29;100211.36;;;6.99;80.59
37066;BME280;22981;43.080;25.550;2023-03-01T14:07:18;100218.33;;;7.00;80.60
37066;BME280;22981;43.080;25.550;2023-03-01T14:09:48;100215.16;;;7.00;80.59
37066;BME280;22981;43.080;25.550;2023-03-01T14:15:02;100217.66;;;6.98;80.57
37066;BME280;22981;43.080;25.550;2023-03-01T14:20:37;100213.67;;;6.98;80.70
37066;BME280;22981;43.080;25.550;2023-03-01T14:23:01;100214.84;;;6.99;80.67
37066;BME280;22981;43.080;25.550;2023-03-01T14:25:34;100214.97;;;7.02;80.75
37066;BME280;22981;43.080;25.550;2023-03-01T14:28:23;100214.15;;;7.01;80.86
37066;BME280;22981;43.080;25.550;2023-03-01T14:30:54;100208.31;;;7.02;80.90
37066;BME280;22981;43.080;25.550;2023-03-01T14:33:24;100207.49;;;7.01;80.88
37066;BME280;22981;43.080;25.550;2023-03-01T14:35:55;100206.16;;;7.01;80.95
37066;BME280;22981;43.080;25.550;2023-03-01T14:38:34;100204.83;;;7.01;81.08
37066;BME280;22981;43.080;25.550;2023-03-01T14:40:56;100204.01;;;7.01;81.18
37066;BME280;22981;43.080;25.550;2023-03-01T14:43:24;100202.17;;;7.01;81.31
37066;BME280;22981;43.080;25.550;2023-03-01T14:45:54;100199.86;;;7.02;81.34